Time;durP1;ratioP1;P1;durP2;ratioP2;P2;SDS_P1;SDS_P2;PMS_P1;PMS_P2;Temp;Humidity;BMP_temperature;BMP_pressure;BME280_temperature;BME280_humidity;BME280_pressure;Samples;Min_cycle;Max_cycle;Signal;HPM_P1;HPM_P2
2022/08/25 00:01:10;;;;;;;7.75;5.32;;;21.60;99.90;;;;;;5012934;28;20145;-74
2022/08/25 00:03:36;;;;;;;;;;;21.60;99.90;;;;;;5030378;28;20064;-74
2022/08/25 00:06:05;;;;;;;7.13;5.43;;;21.60;99.90;;;;;;5030912;28;19916;-74
2022/08/25 00:08:33;;;;;;;7.22;5.70;;;21.60;99.90;;;;;;5030178;28;20107;-74
2022/08/25 00:11:00;;;;;;;6.82;5.30;;;21.50;99.90;;;;;;5012516;28;20501;-74
2022/08/25 00:13:28;;;;;;;7.60;5.25;;;21.50;99.90;;;;;;5028448;28;20050;-74
2022/08/25 00:15:54;;;;;;;7.53;5.40;;;21.50;99.90;;;;;;5029446;28;20128;-74
2022/08/25 00:18:19;;;;;;;6.40;5.63;;;21.40;99.90;;;;;;5028350;28;20112;-74
2022/08/25 00:20:47;;;;;;;7.82;5.38;;;21.40;99.90;;;;;;5029670;28;20047;-74
2022/08/25 00:23:12;;;;;;;6.78;5.10;;;21.40;99.90;;;;;;5011507;28;20091;-74
2022/08/25 00:25:38;;;;;;;8.60;5.45;;;21.30;99.90;;;;;;5030328;28;20049;-74
2022/08/25 00:28:04;;;;;;;6.95;5.00;;;21.30;99.90;;;;;;5030268;28;20386;-74
2022/08/25 00:30:30;;;;;;;7.43;5.05;;;21.30;99.90;;;;;;5029664;28;20474;-74
2022/08/25 00:32:56;;;;;;;7.78;5.38;;;21.30;99.90;;;;;;5029399;28;20052;-74
2022/08/25 00:35:23;;;;;;;6.90;5.00;;;21.20;99.90;;;;;;5030685;28;20037;-74
2022/08/25 00:37:49;;;;;;;6.28;5.13;;;21.20;99.90;;;;;;5014250;28;20087;-74
2022/08/25 00:40:15;;;;;;;6.18;4.70;;;21.20;99.90;;;;;;5030355;28;20072;-75
2022/08/25 00:42:41;;;;;;;10.07;5.15;;;21.20;99.90;;;;;;5012444;28;20045;-74
2022/08/25 00:45:08;;;;;;;7.70;4.85;;;21.10;99.90;;;;;;5045626;28;20091;-74
2022/08/25 00:47:34;;;;;;;6.47;4.90;;;21.10;99.90;;;;;;5014348;28;20061;-74
2022/08/25 00:50:04;;;;;;;7.05;4.88;;;21.10;99.90;;;;;;5014987;28;20528;-74
2022/08/25 00:52:30;;;;;;;7.15;4.82;;;21.10;99.90;;;;;;5030461;28;20046;-75
2022/08/25 00:55:00;;;;;;;7.22;4.65;;;21.10;99.90;;;;;;5031118;28;20371;-74
2022/08/25 00:57:34;;;;;;;6.68;4.90;;;21.10;99.90;;;;;;5030760;28;20041;-74
2022/08/25 01:00:06;;;;;;;8.30;4.85;;;21.10;99.90;;;;;;5026701;28;20085;-74
2022/08/25 01:02:32;;;;;;;7.22;5.28;;;21.00;99.90;;;;;;5028272;28;20116;-74
2022/08/25 01:04:58;;;;;;;6.07;4.78;;;20.90;99.90;;;;;;5030245;28;20486;-74
2022/08/25 01:07:24;;;;;;;9.32;4.78;;;20.90;99.90;;;;;;5014391;28;20127;-74
2022/08/25 01:09:52;;;;;;;6.72;4.90;;;20.80;99.90;;;;;;5029916;28;20038;-74
2022/08/25 01:12:19;;;;;;;8.55;5.20;;;20.80;99.90;;;;;;5027581;28;21493;-74
2022/08/25 01:14:45;;;;;;;8.05;4.93;;;20.80;99.90;;;;;;5014955;28;20045;-74
2022/08/25 01:17:12;;;;;;;6.05;4.55;;;20.80;99.90;;;;;;5016536;28;20076;-74
2022/08/25 01:19:38;;;;;;;7.70;5.10;;;20.70;99.90;;;;;;5018482;28;20099;-74
2022/08/25 01:22:04;;;;;;;7.03;4.95;;;20.70;99.90;;;;;;5030881;28;20044;-74
2022/08/25 01:24:46;;;;;;;7.38;5.22;;;20.70;99.90;;;;;;5030405;28;20036;-74
2022/08/25 01:27:12;;;;;;;6.32;4.85;;;20.70;99.90;;;;;;5017490;28;20041;-75
2022/08/25 01:29:39;;;;;;;6.50;4.70;;;20.70;99.90;;;;;;5032927;28;20084;-74
2022/08/25 01:32:10;;;;;;;8.43;4.68;;;20.60;99.90;;;;;;5031941;28;20037;-75
2022/08/25 01:34:40;;;;;;;5.15;4.63;;;20.70;99.90;;;;;;5015252;28;20041;-75
2022/08/25 01:37:07;;;;;;;7.75;4.88;;;20.70;99.90;;;;;;5017445;28;20606;-75
2022/08/25 01:39:35;;;;;;;6.32;5.05;;;20.70;99.90;;;;;;5017287;28;20046;-75
2022/08/25 01:42:42;;;;;;;8.88;4.50;;;20.70;99.90;;;;;;5027126;28;20034;-75
2022/08/25 01:45:09;;;;;;;5.65;4.57;;;20.70;99.90;;;;;;4995337;28;20088;-75
2022/08/25 01:47:36;;;;;;;8.30;4.72;;;20.60;99.90;;;;;;5026062;28;20053;-75
2022/08/25 01:50:04;;;;;;;6.90;4.82;;;20.60;99.90;;;;;;5019386;28;20123;-75
2022/08/25 01:52:43;;;;;;;7.68;4.97;;;20.60;99.90;;;;;;5032770;28;20041;-75
2022/08/25 01:55:09;;;;;;;8.52;4.88;;;20.60;99.90;;;;;;5034246;28;20049;-75
2022/08/25 01:57:35;;;;;;;9.10;4.70;;;20.60;99.90;;;;;;5034901;28;20056;-74
2022/08/25 02:00:03;;;;;;;10.68;5.13;;;20.60;99.90;;;;;;5033358;28;20037;-74
2022/08/25 02:02:29;;;;;;;8.73;4.70;;;20.50;99.90;;;;;;5014281;28;20065;-74
2022/08/25 02:04:55;;;;;;;5.97;5.00;;;20.50;99.90;;;;;;5020071;28;20037;-75
2022/08/25 02:07:21;;;;;;;11.13;4.78;;;20.50;99.90;;;;;;5031766;28;20413;-74
2022/08/25 02:09:47;;;;;;;8.73;4.93;;;20.50;99.90;;;;;;5034372;28;20466;-74
2022/08/25 02:12:12;;;;;;;6.35;4.95;;;20.40;99.90;;;;;;5033892;28;20050;-74
2022/08/25 02:14:38;;;;;;;8.40;4.97;;;20.40;99.90;;;;;;5033635;28;20052;-74
2022/08/25 02:17:05;;;;;;;5.78;4.88;;;20.40;99.90;;;;;;5017489;28;20483;-74
2022/08/25 02:19:31;;;;;;;11.50;5.10;;;20.40;99.90;;;;;;5031811;28;20111;-74
2022/08/25 02:21:58;;;;;;;7.18;5.22;;;20.40;99.90;;;;;;5011724;28;20033;-74
2022/08/25 02:24:24;;;;;;;6.15;4.80;;;20.30;99.90;;;;;;5009742;28;20181;-74
2022/08/25 02:26:51;;;;;;;7.88;4.93;;;20.30;99.90;;;;;;5034254;28;20048;-74
2022/08/25 02:29:17;;;;;;;5.32;4.78;;;20.30;99.90;;;;;;5034058;28;20050;-74
2022/08/25 02:31:44;;;;;;;7.60;4.93;;;20.20;99.90;;;;;;5032781;28;20044;-74
2022/08/25 02:34:10;;;;;;;6.22;4.72;;;20.20;99.90;;;;;;5034145;28;20405;-74
2022/08/25 02:36:37;;;;;;;8.85;4.97;;;20.20;99.90;;;;;;5032222;28;20052;-74
2022/08/25 02:39:06;;;;;;;7.47;5.00;;;20.10;99.90;;;;;;5017400;28;20034;-74
2022/08/25 02:41:32;;;;;;;6.63;5.32;;;20.10;99.90;;;;;;5033839;28;20038;-74
2022/08/25 02:44:00;;;;;;;7.47;5.15;;;20.10;99.90;;;;;;5033313;28;20047;-74
2022/08/25 02:46:26;;;;;;;5.72;4.80;;;20.10;99.90;;;;;;5032973;28;20124;-74
2022/08/25 02:48:52;;;;;;;9.70;5.05;;;20.10;99.90;;;;;;5033460;28;20057;-74
2022/08/25 02:51:20;;;;;;;8.07;5.40;;;20.10;99.90;;;;;;5030054;28;20049;-75
2022/08/25 02:53:46;;;;;;;7.07;5.32;;;20.00;99.90;;;;;;5022277;28;20120;-74
2022/08/25 02:56:14;;;;;;;7.75;5.47;;;20.00;99.90;;;;;;5033270;28;20183;-75
2022/08/25 02:58:41;;;;;;;7.63;5.53;;;20.00;99.90;;;;;;5016899;28;20505;-74
2022/08/25 03:01:10;;;;;;;8.45;5.22;;;20.00;99.90;;;;;;5017182;28;20144;-74
2022/08/25 03:03:39;;;;;;;9.25;5.75;;;19.90;99.90;;;;;;5031851;28;20068;-74
2022/08/25 03:06:10;;;;;;;7.47;5.85;;;19.90;99.90;;;;;;5029581;28;20110;-74
2022/08/25 03:08:37;;;;;;;8.63;5.40;;;19.90;99.90;;;;;;5033372;28;20057;-74
2022/08/25 03:11:03;;;;;;;6.75;5.50;;;19.80;99.90;;;;;;5016867;28;20049;-74
2022/08/25 03:13:31;;;;;;;6.93;5.85;;;19.80;99.90;;;;;;5000382;28;20497;-74
2022/08/25 03:15:58;;;;;;;7.28;5.43;;;19.80;99.90;;;;;;5033221;28;20049;-74
2022/08/25 03:18:24;;;;;;;9.45;5.20;;;19.80;99.90;;;;;;5015803;28;20045;-75
2022/08/25 03:20:50;;;;;;;8.18;5.70;;;19.80;99.90;;;;;;5028386;28;20049;-74
2022/08/25 03:23:16;;;;;;;7.43;6.05;;;19.70;99.90;;;;;;5031749;28;20175;-74
2022/08/25 03:28:27;;;;;;;7.13;6.10;;;19.70;99.90;;;;;;5033242;28;20060;-74
2022/08/25 03:30:52;;;;;;;10.38;6.18;;;19.70;99.90;;;;;;5015949;28;20041;-74
2022/08/25 03:33:19;;;;;;;8.18;6.28;;;19.60;99.90;;;;;;5032572;28;20481;-74
2022/08/25 03:35:45;;;;;;;9.68;6.10;;;19.60;99.90;;;;;;5027551;28;20038;-74
2022/08/25 03:38:11;;;;;;;10.85;6.80;;;19.50;99.90;;;;;;5025459;28;20413;-74
2022/08/25 03:40:37;;;;;;;11.32;6.35;;;19.60;99.90;;;;;;5031363;28;20041;-74
2022/08/25 03:43:03;;;;;;;13.60;6.70;;;19.50;99.90;;;;;;5016514;28;20553;-74
2022/08/25 03:45:29;;;;;;;8.00;6.00;;;19.50;99.90;;;;;;5032915;28;20079;-74
2022/08/25 03:47:55;;;;;;;7.75;6.25;;;19.40;99.90;;;;;;5032719;28;20504;-74
2022/08/25 03:50:22;;;;;;;8.68;6.28;;;19.40;99.90;;;;;;5027290;28;20041;-74
2022/08/25 03:52:56;;;;;;;9.35;6.70;;;19.40;99.90;;;;;;5011165;28;20516;-74
2022/08/25 03:55:24;;;;;;;10.93;6.45;;;19.40;99.90;;;;;;5032253;28;20501;-74
2022/08/25 03:57:51;;;;;;;9.75;6.50;;;19.40;99.90;;;;;;5016136;28;20478;-74
2022/08/25 04:00:18;;;;;;;8.90;6.43;;;19.40;99.90;;;;;;5032473;28;20045;-74
2022/08/25 04:02:44;;;;;;;8.40;6.60;;;19.40;99.90;;;;;;5032094;28;20061;-74
2022/08/25 04:05:10;;;;;;;8.13;6.25;;;19.30;99.90;;;;;;5032482;28;20045;-74
2022/08/25 04:07:37;;;;;;;9.73;7.07;;;19.30;99.90;;;;;;4994052;28;20145;-74
2022/08/25 04:10:04;;;;;;;12.95;7.32;;;19.30;99.90;;;;;;5025248;28;20362;-74
2022/08/25 04:12:30;;;;;;;8.93;6.97;;;19.30;99.90;;;;;;5032371;28;20041;-74
2022/08/25 04:14:56;;;;;;;9.25;7.00;;;19.20;99.90;;;;;;5031994;28;20067;-74
2022/08/25 04:17:23;;;;;;;11.38;7.22;;;19.20;99.90;;;;;;5031615;28;20128;-74
2022/08/25 04:19:49;;;;;;;11.25;7.00;;;19.20;99.90;;;;;;5031523;28;20506;-74
2022/08/25 04:22:15;;;;;;;10.73;7.53;;;19.20;99.90;;;;;;4978277;28;20045;-74
2022/08/25 04:24:41;;;;;;;11.52;7.72;;;19.20;99.90;;;;;;5031726;28;20042;-74
2022/08/25 04:27:07;;;;;;;18.80;7.88;;;19.10;99.90;;;;;;5031152;28;20084;-74
2022/08/25 04:29:33;;;;;;;10.95;7.80;;;19.10;99.90;;;;;;5032037;28;20049;-74
2022/08/25 04:31:59;;;;;;;12.43;7.60;;;19.10;99.90;;;;;;5031588;28;20177;-74
2022/08/25 04:34:27;;;;;;;12.73;7.47;;;19.20;99.90;;;;;;5048477;28;20053;-74
2022/08/25 04:36:53;;;;;;;11.05;7.85;;;19.10;99.90;;;;;;5011789;28;20052;-74
2022/08/25 04:39:20;;;;;;;12.02;7.13;;;19.20;99.90;;;;;;5031751;28;20037;-75
2022/08/25 04:41:47;;;;;;;11.65;7.40;;;19.20;99.90;;;;;;5032011;28;20041;-74
2022/08/25 04:44:13;;;;;;;11.70;7.20;;;19.20;99.90;;;;;;5014829;28;20126;-74
2022/08/25 04:46:39;;;;;;;11.20;7.72;;;19.10;99.90;;;;;;5014841;28;20038;-74
2022/08/25 04:49:05;;;;;;;10.02;7.72;;;19.20;99.90;;;;;;5015648;28;20049;-74
2022/08/25 04:51:35;;;;;;;12.25;7.22;;;19.20;99.90;;;;;;5013745;28;20041;-74
2022/08/25 04:54:04;;;;;;;11.43;7.28;;;19.20;99.90;;;;;;5031970;28;20120;-74
2022/08/25 04:56:32;;;;;;;11.18;7.82;;;19.20;99.90;;;;;;5031539;28;20041;-74
2022/08/25 04:59:03;;;;;;;12.07;7.82;;;19.20;99.90;;;;;;5031299;28;20128;-74
2022/08/25 05:01:30;;;;;;;10.18;7.18;;;19.20;99.90;;;;;;5015326;28;20037;-74
2022/08/25 05:04:02;;;;;;;9.93;7.70;;;19.20;99.90;;;;;;5030008;28;20441;-73
2022/08/25 05:06:29;;;;;;;13.32;7.32;;;19.20;99.90;;;;;;5013254;28;20363;-73
2022/08/25 05:08:56;;;;;;;11.55;7.30;;;19.30;99.90;;;;;;5014984;28;20048;-74
2022/08/25 05:11:23;;;;;;;9.95;7.70;;;19.30;99.90;;;;;;5015048;28;20049;-73
2022/08/25 05:13:51;;;;;;;12.30;8.40;;;19.30;99.90;;;;;;5015314;28;20052;-73
2022/08/25 05:16:18;;;;;;;11.90;7.60;;;19.30;99.90;;;;;;5031441;28;20211;-73
2022/08/25 05:18:45;;;;;;;11.43;8.15;;;19.30;99.90;;;;;;5029383;28;20568;-73
2022/08/25 05:21:18;;;;;;;20.25;8.25;;;19.40;99.90;;;;;;5029848;28;20037;-73
2022/08/25 05:23:45;;;;;;;13.40;7.97;;;19.40;99.90;;;;;;5031389;28;20042;-74
2022/08/25 05:26:21;;;;;;;12.20;8.30;;;19.40;99.90;;;;;;5015323;28;20041;-74
2022/08/25 05:28:49;;;;;;;12.48;8.43;;;19.50;99.90;;;;;;5015258;28;20052;-74
2022/08/25 05:31:16;;;;;;;11.35;8.05;;;19.50;99.90;;;;;;5030982;28;20073;-74
2022/08/25 05:33:42;;;;;;;12.50;8.25;;;19.50;99.90;;;;;;5030257;28;20095;-74
2022/08/25 05:36:10;;;;;;;11.63;8.52;;;19.60;99.90;;;;;;5013391;28;20132;-74
2022/08/25 05:38:37;;;;;;;11.82;8.25;;;19.60;99.90;;;;;;5031424;28;20037;-74
2022/08/25 05:41:05;;;;;;;12.45;8.88;;;19.70;99.90;;;;;;5011418;28;20133;-73
2022/08/25 05:43:32;;;;;;;14.52;8.75;;;19.80;99.90;;;;;;5033168;28;20048;-74
2022/08/25 05:45:58;;;;;;;13.85;8.95;;;19.80;99.90;;;;;;5010920;28;20129;-74
2022/08/25 05:48:25;;;;;;;11.95;8.65;;;19.90;99.90;;;;;;5029670;28;20041;-73
2022/08/25 05:50:53;;;;;;;15.75;8.95;;;20.00;99.90;;;;;;5030807;28;20034;-74
2022/08/25 05:53:21;;;;;;;12.73;9.38;;;20.00;99.90;;;;;;5030699;28;20045;-73
2022/08/25 05:55:47;;;;;;;12.15;9.02;;;20.00;99.90;;;;;;5030941;28;20049;-73
2022/08/25 05:58:12;;;;;;;13.70;9.07;;;20.10;99.90;;;;;;5032605;28;20052;-73
2022/08/25 06:00:39;;;;;;;13.40;9.05;;;20.20;99.90;;;;;;5034735;28;20604;-73
2022/08/25 06:03:05;;;;;;;13.05;9.02;;;20.20;99.90;;;;;;5017216;28;20048;-73
2022/08/25 06:05:32;;;;;;;11.43;8.93;;;20.30;99.90;;;;;;5033477;28;20067;-73
2022/08/25 06:07:58;;;;;;;12.45;8.77;;;20.40;99.90;;;;;;5034530;28;20046;-73
2022/08/25 06:10:27;;;;;;;14.60;9.45;;;20.50;99.90;;;;;;5033583;28;20044;-73
2022/08/25 06:12:53;;;;;;;12.98;9.40;;;20.60;99.90;;;;;;5018336;28;20057;-73
2022/08/25 06:15:21;;;;;;;12.10;9.00;;;20.60;99.90;;;;;;5017529;28;20053;-73
2022/08/25 06:17:48;;;;;;;14.13;8.98;;;20.70;99.90;;;;;;5016901;28;20044;-73
2022/08/25 06:20:18;;;;;;;14.68;9.50;;;20.80;99.90;;;;;;5018209;28;20046;-73
2022/08/25 06:22:44;;;;;;;11.85;8.85;;;20.90;99.90;;;;;;5017476;28;20048;-74
2022/08/25 06:25:12;;;;;;;13.93;9.57;;;21.00;99.90;;;;;;5017500;28;20037;-73
2022/08/25 06:27:39;;;;;;;14.00;8.73;;;21.10;99.90;;;;;;5034111;28;20041;-73
2022/08/25 06:30:08;;;;;;;13.75;8.98;;;21.20;99.90;;;;;;5034392;28;20046;-74
2022/08/25 06:32:35;;;;;;;15.27;9.07;;;21.30;99.90;;;;;;5016062;28;20049;-73
2022/08/25 06:35:07;;;;;;;13.57;9.02;;;21.30;99.90;;;;;;5034472;28;20053;-73
2022/08/25 06:37:34;;;;;;;17.17;9.23;;;21.40;99.90;;;;;;5033012;28;20037;-73
2022/08/25 06:40:00;;;;;;;14.98;9.35;;;21.50;99.90;;;;;;5000351;28;20048;-74
2022/08/25 06:42:26;;;;;;;14.77;9.38;;;21.60;99.90;;;;;;5016617;28;20103;-74
2022/08/25 06:44:52;;;;;;;16.05;9.25;;;21.70;99.90;;;;;;5033578;28;20046;-74
2022/08/25 06:47:18;;;;;;;11.35;8.95;;;21.80;99.90;;;;;;5031195;28;20044;-75
2022/08/25 06:49:44;;;;;;;12.82;9.32;;;21.90;99.90;;;;;;5016436;28;20045;-75
2022/08/25 06:52:11;;;;;;;12.88;9.18;;;21.90;99.90;;;;;;5001638;28;20386;-75
2022/08/25 06:54:37;;;;;;;12.55;8.55;;;22.10;99.90;;;;;;5050475;28;20130;-76
2022/08/25 06:57:05;;;;;;;16.33;8.90;;;22.20;99.90;;;;;;5033447;28;20505;-75
2022/08/25 06:59:32;;;;;;;13.40;9.43;;;22.30;99.90;;;;;;5033985;28;20049;-75
2022/08/25 07:01:59;;;;;;;12.98;8.90;;;22.40;99.90;;;;;;5011503;28;20486;-75
2022/08/25 07:04:25;;;;;;;13.30;8.57;;;22.40;99.90;;;;;;4979183;28;20095;-75
2022/08/25 07:06:51;;;;;;;13.90;8.02;;;22.50;99.90;;;;;;5017051;28;20045;-76
2022/08/25 07:09:17;;;;;;;11.85;8.15;;;22.60;99.90;;;;;;5032611;28;20050;-75
2022/08/25 07:11:44;;;;;;;12.98;8.25;;;22.60;99.90;;;;;;5033708;28;20393;-75
2022/08/25 07:14:12;;;;;;;13.45;8.38;;;22.80;99.90;;;;;;5032047;28;20372;-76
2022/08/25 07:16:39;;;;;;;10.13;7.82;;;22.80;99.90;;;;;;5031154;28;20036;-75
2022/08/25 07:19:05;;;;;;;11.45;7.63;;;23.00;99.90;;;;;;4997148;28;20050;-75
2022/08/25 07:21:33;;;;;;;10.77;7.80;;;23.10;99.90;;;;;;4997274;28;20038;-75
2022/08/25 07:24:00;;;;;;;11.40;7.75;;;23.20;99.90;;;;;;5023838;28;20103;-75
2022/08/25 07:26:30;;;;;;;12.02;7.50;;;23.40;99.90;;;;;;4999136;28;20424;-75
2022/08/25 07:28:58;;;;;;;10.38;7.40;;;23.50;99.90;;;;;;5033385;28;20048;-75
2022/08/25 07:31:27;;;;;;;9.68;7.03;;;23.60;99.90;;;;;;5015825;28;20551;-75
2022/08/25 07:36:38;;;;;;;12.60;7.13;;;23.90;99.90;;;;;;5032366;28;20127;-76
2022/08/25 07:39:04;;;;;;;11.45;7.03;;;24.00;99.90;;;;;;5017674;28;20558;-75
2022/08/25 07:41:40;;;;;;;15.90;7.28;;;24.00;99.90;;;;;;5033053;28;20045;-75
2022/08/25 07:44:08;;;;;;;9.40;7.18;;;24.10;99.90;;;;;;5048495;28;20489;-75
2022/08/25 07:46:34;;;;;;;10.88;6.88;;;24.30;99.90;;;;;;5016405;28;20516;-75
2022/08/25 07:49:00;;;;;;;10.73;6.45;;;24.40;99.90;;;;;;5012890;28;20041;-75
2022/08/25 07:51:26;;;;;;;11.57;6.93;;;24.60;99.90;;;;;;5016649;28;20467;-75
2022/08/25 07:53:52;;;;;;;13.20;7.10;;;24.60;99.90;;;;;;5032739;28;20080;-75
2022/08/25 07:56:18;;;;;;;9.73;6.25;;;24.70;99.90;;;;;;5032793;28;20079;-75
2022/08/25 07:58:45;;;;;;;9.70;6.40;;;24.90;99.90;;;;;;5032821;28;20080;-74
2022/08/25 08:01:20;;;;;;;8.43;6.57;;;25.00;99.90;;;;;;5032471;28;20099;-75
2022/08/25 08:03:48;;;;;;;14.05;6.47;;;25.10;99.90;;;;;;5030532;28;20049;-75
2022/08/25 08:06:16;;;;;;;9.48;6.82;;;25.20;99.90;;;;;;5015987;28;20049;-75
2022/08/25 08:08:44;;;;;;;10.48;6.57;;;25.30;99.90;;;;;;5032441;28;20363;-75
2022/08/25 08:11:45;;;;;;;9.40;6.80;;;25.40;99.90;;;;;;5032488;28;20053;-75
2022/08/25 08:14:12;;;;;;;11.77;6.63;;;25.60;99.90;;;;;;5029056;28;20480;-75
2022/08/25 08:16:38;;;;;;;9.63;6.80;;;25.70;99.90;;;;;;5030180;28;20045;-75
2022/08/25 08:19:04;;;;;;;12.50;6.70;;;25.80;99.90;;;;;;5026888;28;20072;-75
2022/08/25 08:21:33;;;;;;;11.07;6.55;;;25.90;99.90;;;;;;5032327;28;20044;-75
2022/08/25 08:23:59;;;;;;;9.50;6.97;;;26.00;99.50;;;;;;5031971;28;20437;-75
2022/08/25 08:26:27;;;;;;;13.80;6.28;;;26.00;98.90;;;;;;5013872;28;20552;-75
2022/08/25 08:28:53;;;;;;;8.63;6.63;;;26.10;98.60;;;;;;5046588;28;20037;-75
2022/08/25 08:31:22;;;;;;;9.38;6.55;;;26.20;98.50;;;;;;4997322;28;20045;-75
2022/08/25 08:33:49;;;;;;;7.63;6.75;;;26.30;97.80;;;;;;5025461;28;20076;-76
2022/08/25 08:36:15;;;;;;;9.95;7.07;;;26.40;97.40;;;;;;4992554;28;20095;-76
2022/08/25 08:38:42;;;;;;;11.38;6.55;;;26.50;97.20;;;;;;5027160;28;20116;-75
2022/08/25 08:44:41;;;;;;;14.10;6.57;;;26.70;96.00;;;;;;5013016;28;20042;-75
2022/08/25 08:47:45;;;;;;;8.30;6.65;;;26.90;97.00;;;;;;5028561;28;20041;-75
2022/08/25 08:50:32;;;;;;;8.38;6.72;;;27.10;96.10;;;;;;5012137;28;20486;-75
2022/08/25 08:53:18;;;;;;;9.07;6.90;;;27.10;95.60;;;;;;5028546;28;20120;-75
2022/08/25 08:55:48;;;;;;;9.15;6.03;;;27.20;94.80;;;;;;5015287;28;20080;-75
2022/08/25 08:58:19;;;;;;;8.85;6.72;;;27.30;94.40;;;;;;5014772;28;20103;-75
2022/08/25 09:01:00;;;;;;;8.57;6.90;;;27.30;94.00;;;;;;5029126;28;20048;-75
2022/08/25 09:03:36;;;;;;;;;;;27.40;94.20;;;;;;5014552;28;20140;-75
2022/08/25 09:06:10;;;;;;;12.52;8.05;;;27.60;93.90;;;;;;5048262;28;19963;-75
2022/08/25 09:08:39;;;;;;;9.45;6.68;;;27.60;94.00;;;;;;5012674;28;20045;-75
2022/08/25 09:11:10;;;;;;;10.15;7.22;;;27.70;93.80;;;;;;5010976;28;20059;-75
2022/08/25 09:13:48;;;;;;;10.38;7.28;;;27.90;93.80;;;;;;5031777;28;20042;-74
2022/08/25 09:19:38;;;;;;;11.93;7.95;;;28.10;92.40;;;;;;5031291;28;20049;-75
2022/08/25 09:22:18;;;;;;;8.88;7.95;;;28.20;92.50;;;;;;5031240;28;20049;-75
2022/08/25 09:25:15;;;;;;;9.13;7.22;;;28.30;91.80;;;;;;5030709;28;20045;-75
2022/08/25 09:28:08;;;;;;;13.02;7.72;;;28.40;92.40;;;;;;5031529;28;20056;-75
2022/08/25 09:30:46;;;;;;;10.05;7.32;;;28.60;91.30;;;;;;5031442;28;20054;-75
2022/08/25 09:33:19;;;;;;;10.07;7.22;;;28.60;91.20;;;;;;5033337;28;20052;-75
2022/08/25 09:35:46;;;;;;;8.75;6.90;;;28.80;91.20;;;;;;5035038;28;20041;-74
2022/08/25 09:38:12;;;;;;;7.32;5.95;;;28.90;90.90;;;;;;5018033;28;20124;-74
2022/08/25 09:40:45;;;;;;;10.27;5.63;;;29.00;90.00;;;;;;5032006;28;20047;-75
2022/08/25 09:43:30;;;;;;;9.07;5.55;;;29.00;88.40;;;;;;5034977;28;20041;-75
2022/08/25 09:46:24;;;;;;;7.57;5.50;;;29.10;86.40;;;;;;5017505;28;20071;-75
2022/08/25 09:49:12;;;;;;;12.82;6.28;;;29.20;85.10;;;;;;5032358;28;20045;-75
2022/08/25 09:51:39;;;;;;;7.40;5.90;;;29.30;84.30;;;;;;5035240;28;20381;-75
2022/08/25 09:54:14;;;;;;;9.73;6.38;;;29.40;85.10;;;;;;5001127;28;20052;-75
2022/08/25 09:57:00;;;;;;;8.77;5.68;;;29.60;82.50;;;;;;5036182;28;20481;-75
2022/08/25 09:59:32;;;;;;;8.10;5.40;;;29.50;81.10;;;;;;5030353;28;20209;-75
2022/08/25 10:02:01;;;;;;;9.35;5.22;;;29.70;82.80;;;;;;5028351;28;20045;-75
2022/08/25 10:04:36;;;;;;;8.73;5.20;;;29.70;82.20;;;;;;5031090;28;20057;-75
2022/08/25 10:07:17;;;;;;;8.07;5.90;;;29.80;79.60;;;;;;5034750;28;20052;-75
2022/08/25 10:09:55;;;;;;;8.52;5.13;;;30.00;80.00;;;;;;5034614;28;20072;-75
2022/08/25 10:12:28;;;;;;;6.88;4.90;;;29.90;77.20;;;;;;5018344;28;20370;-75
2022/08/25 10:14:54;;;;;;;7.43;5.40;;;30.00;79.20;;;;;;5034636;28;20038;-75
2022/08/25 10:17:29;;;;;;;8.55;5.70;;;30.10;79.40;;;;;;5017083;28;20385;-75
2022/08/25 10:20:16;;;;;;;11.23;5.97;;;30.30;77.50;;;;;;5028770;28;20064;-74
2022/08/25 10:22:43;;;;;;;9.35;5.60;;;30.50;75.50;;;;;;5014004;28;20116;-74
2022/08/25 10:25:12;;;;;;;6.70;5.63;;;30.50;76.80;;;;;;5034636;28;20050;-75
2022/08/25 10:27:44;;;;;;;7.57;5.85;;;30.50;76.00;;;;;;5034616;28;20449;-75
2022/08/25 10:30:18;;;;;;;6.72;4.93;;;30.50;74.20;;;;;;5034504;28;20049;-75
2022/08/25 10:33:08;;;;;;;8.02;4.97;;;30.50;72.70;;;;;;5033686;28;20092;-75
2022/08/25 10:35:59;;;;;;;8.15;5.03;;;30.60;72.60;;;;;;5017972;28;20064;-74
2022/08/25 10:38:35;;;;;;;11.85;5.40;;;30.80;72.20;;;;;;5034244;28;20048;-74
2022/08/25 10:41:16;;;;;;;6.00;4.30;;;30.80;71.50;;;;;;5034059;28;20389;-75
2022/08/25 10:43:52;;;;;;;7.53;5.00;;;30.80;69.40;;;;;;5033480;28;20053;-74
2022/08/25 10:46:43;;;;;;;5.68;5.15;;;30.90;71.00;;;;;;5033431;28;20041;-76
2022/08/25 10:49:36;;;;;;;9.20;5.47;;;31.00;70.00;;;;;;5027890;28;20053;-75
2022/08/25 10:52:08;;;;;;;10.10;4.97;;;31.10;70.30;;;;;;5013606;28;20041;-75
2022/08/25 10:54:52;;;;;;;9.00;5.20;;;31.10;70.60;;;;;;5033723;28;20049;-76
2022/08/25 10:57:52;;;;;;;6.38;4.95;;;31.20;69.60;;;;;;5017226;28;20045;-75
2022/08/25 11:00:22;;;;;;;7.60;5.13;;;31.30;68.50;;;;;;5033467;28;20099;-75
2022/08/25 11:03:11;;;;;;;6.22;4.90;;;31.30;69.40;;;;;;5012025;28;20119;-75
2022/08/25 11:05:45;;;;;;;5.60;5.10;;;31.40;69.70;;;;;;5024273;28;20068;-74
2022/08/25 11:08:27;;;;;;;10.65;4.88;;;31.40;67.80;;;;;;5026835;28;20059;-75
2022/08/25 11:11:31;;;;;;;6.20;4.60;;;31.50;69.80;;;;;;5027081;28;20049;-75
2022/08/25 11:14:09;;;;;;;5.80;4.80;;;31.60;66.90;;;;;;5031128;28;20497;-75
2022/08/25 11:16:57;;;;;;;5.90;4.53;;;31.60;67.30;;;;;;5033653;28;20045;-75
2022/08/25 11:19:34;;;;;;;5.95;4.00;;;31.70;65.70;;;;;;5032527;28;20051;-75
2022/08/25 11:22:12;;;;;;;6.43;4.13;;;31.80;64.20;;;;;;5033393;28;20068;-74
2022/08/25 11:24:43;;;;;;;6.35;4.35;;;31.80;63.20;;;;;;5016735;28;20037;-75
2022/08/25 11:27:17;;;;;;;8.00;4.00;;;31.80;63.50;;;;;;5030259;28;20107;-74
2022/08/25 11:29:52;;;;;;;5.55;3.90;;;31.80;61.30;;;;;;5029541;28;20489;-75
2022/08/25 11:32:23;;;;;;;3.97;3.60;;;31.90;62.00;;;;;;5033115;28;20041;-75
2022/08/25 11:34:51;;;;;;;6.03;3.88;;;32.00;62.10;;;;;;5033107;28;20046;-75
2022/08/25 11:37:25;;;;;;;8.70;4.00;;;31.90;61.10;;;;;;5000228;28;20049;-75
2022/08/25 11:40:18;;;;;;;4.47;4.03;;;31.90;59.70;;;;;;5032364;28;20422;-75
2022/08/25 11:42:54;;;;;;;7.50;4.10;;;32.10;59.50;;;;;;5012906;28;20389;-75
2022/08/25 11:45:23;;;;;;;3.95;3.55;;;32.00;60.00;;;;;;5028364;28;20690;-75
2022/08/25 11:47:57;;;;;;;7.18;4.00;;;32.20;59.80;;;;;;5032843;28;20072;-74
2022/08/25 11:50:33;;;;;;;4.30;3.85;;;32.40;59.00;;;;;;5032862;28;20049;-74
2022/08/25 11:53:24;;;;;;;5.10;3.60;;;32.50;59.00;;;;;;5016443;28;20116;-74
2022/08/25 11:56:27;;;;;;;5.68;3.90;;;32.70;57.60;;;;;;5014971;28;20044;-75
2022/08/25 11:58:53;;;;;;;7.75;4.03;;;32.70;58.30;;;;;;4996920;28;20052;-75
2022/08/25 12:01:38;;;;;;;6.18;3.60;;;32.80;59.10;;;;;;4996626;28;20386;-74
2022/08/25 12:04:35;;;;;;;6.43;4.07;;;32.90;56.70;;;;;;5026356;28;20133;-74
2022/08/25 12:07:09;;;;;;;5.60;3.97;;;33.10;57.00;;;;;;5017089;28;20037;-74
2022/08/25 12:09:52;;;;;;;6.30;4.30;;;32.80;56.40;;;;;;5012843;28;20061;-74
2022/08/25 12:12:41;;;;;;;6.18;4.00;;;33.00;54.70;;;;;;5012528;28;20052;-75
2022/08/25 12:15:22;;;;;;;5.30;3.88;;;33.10;57.60;;;;;;5008284;28;20076;-74
2022/08/25 12:18:09;;;;;;;7.15;4.18;;;33.50;55.60;;;;;;5025428;28;20092;-75
2022/08/25 12:20:56;;;;;;;7.18;4.07;;;33.60;55.00;;;;;;5026151;28;20061;-74
2022/08/25 12:23:41;;;;;;;7.18;3.60;;;33.90;56.10;;;;;;5031781;28;21005;-75
2022/08/25 12:26:28;;;;;;;6.00;3.65;;;34.30;55.80;;;;;;5032347;28;20045;-75
2022/08/25 12:29:06;;;;;;;6.22;3.90;;;34.20;53.90;;;;;;5028035;28;20044;-74
2022/08/25 12:31:57;;;;;;;5.80;4.05;;;34.30;52.40;;;;;;5045633;28;20544;-75
2022/08/25 12:34:39;;;;;;;4.60;3.53;;;34.00;51.70;;;;;;5025895;28;20037;-75
2022/08/25 12:37:17;;;;;;;11.00;4.00;;;34.10;54.10;;;;;;5038834;28;20053;-76
2022/08/25 12:40:04;;;;;;;4.40;3.53;;;34.20;52.40;;;;;;5031736;28;20045;-75
2022/08/25 12:42:38;;;;;;;4.20;3.80;;;34.50;51.70;;;;;;5014969;28;20125;-75
2022/08/25 12:45:31;;;;;;;5.45;4.05;;;34.80;51.50;;;;;;5032104;28;20056;-75
2022/08/25 12:48:25;;;;;;;4.60;3.90;;;34.90;51.90;;;;;;5029541;28;20056;-75
2022/08/25 12:51:18;;;;;;;5.13;3.58;;;34.80;50.90;;;;;;5028401;28;20041;-75
2022/08/25 12:53:52;;;;;;;4.22;3.80;;;35.40;50.90;;;;;;5008939;28;20489;-76
2022/08/25 12:56:26;;;;;;;5.72;4.10;;;35.40;50.60;;;;;;5015573;28;20045;-75
2022/08/25 12:59:11;;;;;;;12.25;3.67;;;35.70;50.30;;;;;;5030804;28;20045;-75
2022/08/25 13:01:46;;;;;;;4.82;3.70;;;35.80;50.00;;;;;;5015093;28;20049;-75
2022/08/25 13:04:30;;;;;;;6.18;3.80;;;35.90;49.70;;;;;;5025626;28;20056;-75
2022/08/25 13:07:18;;;;;;;4.38;3.80;;;36.10;49.40;;;;;;5046751;28;20424;-76
2022/08/25 13:10:05;;;;;;;4.30;3.85;;;36.40;47.50;;;;;;5031515;28;20041;-75
2022/08/25 13:12:57;;;;;;;7.65;4.00;;;36.70;49.60;;;;;;5024630;28;20498;-76
2022/08/25 13:15:34;;;;;;;7.93;4.00;;;37.20;47.50;;;;;;5027552;28;20053;-75
2022/08/25 13:18:24;;;;;;;7.70;4.10;;;37.40;46.00;;;;;;5031312;28;20457;-76